Skip Navigation Links Skip Navigation Links

Current Weather

East Troy Muni, East Troy, Wis.

For information only: do not use for flight planning or navigation.
Latest weather
Observation time Sunday, October 13, 2019 5:55 PM CDT
Local time Sunday, October 13, 2019 6:05 PM CDT
Flight conditions Visual Meteorological Conditions
Winds
Wind direction West (270°)
Wind speed 15 mph
Visibility 10 mi.
Sky condition
Ceiling 3,800 ft. overcast
Cloud layer overcast 3,800 ft.
Temperature 41°F
Dewpoint 32°F
Altimeter 29.86 in.Hg
Derived measurements
Relative humidity 70%
Wind chill 33°F
Density altitude -185 ft.
Remarks
Fully automated report.
Automated weather observing station with precipitation discriminator.
METAR K57C 132255Z AUTO 27013KT 10SM OVC038 05/00 A2986 RMK AO2 T00500000

Settings

Location code

InnerDrive.Weather 4.0.6770.0 Release CLR 4.0.30319.42000
Copyright ©2018 Inner Drive Technology. All rights reserved. Portions Copyright ©1986-2018 David Braverman.

Find weather

Site navigation


Skip Navigation Links

Place info

Page info

PayPal - The safer, easier way to pay online!

Return home.

Copyright ©2019 Inner Drive Technology. Purveyors of fine, hand-crafted computer software. Page printed 2019-10-13T23:05:20 UTC.